createdAt,value
2023-02-14T00:01:31.071Z,102184.59
2023-02-14T00:04:01.342Z,102187.53
2023-02-14T00:06:32.999Z,102161.03
2023-02-14T00:09:02.237Z,102163.78
2023-02-14T00:11:30.370Z,102156.91
2023-02-14T00:14:16.789Z,102151.66
2023-02-14T00:16:44.870Z,102157.13
2023-02-14T00:19:14.896Z,102162.78
2023-02-14T00:21:43.309Z,102159.03
2023-02-14T00:24:16.350Z,102150.06
2023-02-14T00:26:43.855Z,102155.00
2023-02-14T00:29:18.302Z,102147.56
2023-02-14T00:31:46.510Z,102139.97
2023-02-14T00:34:16.234Z,102130.25
2023-02-14T00:36:45.503Z,102148.13
2023-02-14T00:39:15.237Z,102151.22
2023-02-14T00:41:43.799Z,102149.97
2023-02-14T00:44:12.954Z,102143.56
2023-02-14T00:46:41.175Z,102153.13
2023-02-14T00:49:09.531Z,102152.72
2023-02-14T00:51:37.421Z,102149.13
2023-02-14T00:54:06.032Z,102153.22
2023-02-14T00:56:33.988Z,102144.66
2023-02-14T00:59:01.931Z,102145.22
2023-02-14T01:01:30.863Z,102135.75
2023-02-14T01:03:59.103Z,102144.34
2023-02-14T01:06:27.503Z,102148.09
2023-02-14T01:08:55.323Z,102141.84
2023-02-14T01:11:24.086Z,102146.94
2023-02-14T01:13:54.106Z,102142.41
2023-02-14T01:16:24.531Z,102133.38
2023-02-14T01:18:52.469Z,102131.22
2023-02-14T01:21:26.129Z,102123.78
2023-02-14T01:23:56.273Z,102125.66
2023-02-14T01:26:25.828Z,102126.50
2023-02-14T01:28:57.015Z,102128.09
2023-02-14T01:31:28.014Z,102115.53
2023-02-14T01:33:58.019Z,102112.63
2023-02-14T01:36:32.883Z,102107.47
2023-02-14T01:39:06.579Z,102114.91
2023-02-14T01:41:37.958Z,102110.38
2023-02-14T01:44:28.120Z,102115.44
2023-02-14T01:46:56.581Z,102109.75
2023-02-14T01:49:35.816Z,102108.97
2023-02-14T01:52:23.528Z,102101.34
2023-02-14T01:54:59.327Z,102098.09
2023-02-14T01:57:37.104Z,102078.34
2023-02-14T02:00:24.932Z,102088.31
2023-02-14T02:02:53.375Z,102090.28
2023-02-14T02:05:24.011Z,102085.72
2023-02-14T02:07:54.160Z,102090.97
2023-02-14T02:10:22.033Z,102089.97
2023-02-14T02:12:53.539Z,102087.63
2023-02-14T02:15:27.266Z,102089.19
2023-02-14T02:18:16.788Z,102094.16
2023-02-14T02:21:07.259Z,102082.94
2023-02-14T02:23:59.386Z,102078.28
2023-02-14T02:26:45.936Z,102076.91
2023-02-14T02:29:41.064Z,102069.47
2023-02-14T02:32:30.101Z,102066.59
2023-02-14T02:35:30.888Z,102061.31
2023-02-14T02:38:10.466Z,102060.31
2023-02-14T02:41:14.340Z,102044.25
2023-02-14T02:44:14.329Z,102042.78
2023-02-14T02:47:01.751Z,102037.94
2023-02-14T02:50:03.229Z,102059.03
2023-02-14T02:53:03.279Z,102047.94
2023-02-14T02:55:57.056Z,102058.53
2023-02-14T02:58:35.174Z,102056.66
2023-02-14T03:01:08.738Z,102057.84
2023-02-14T03:03:58.007Z,102046.44
2023-02-14T03:06:25.908Z,102046.94
2023-02-14T03:08:53.838Z,102046.34
2023-02-14T03:11:21.821Z,102046.84
2023-02-14T03:13:54.614Z,102049.81
2023-02-14T03:16:50.630Z,102059.63
2023-02-14T03:20:18.087Z,102056.06
2023-02-14T03:22:49.441Z,102057.47
2023-02-14T03:25:30.382Z,102060.94
2023-02-14T03:28:24.115Z,102050.81
2023-02-14T03:31:01.934Z,102042.28
2023-02-14T03:33:30.055Z,102052.22
2023-02-14T03:36:09.072Z,102050.91
2023-02-14T03:39:05.705Z,102052.59
2023-02-14T03:41:44.626Z,102053.09
2023-02-14T03:44:17.431Z,102054.38
2023-02-14T03:46:53.776Z,102056.75
2023-02-14T03:49:28.017Z,102052.47
2023-02-14T03:51:57.442Z,102053.44
2023-02-14T03:54:27.347Z,102053.72
2023-02-14T03:57:07.484Z,102053.16
2023-02-14T03:59:35.626Z,102054.00
2023-02-14T04:02:29.950Z,102046.63
2023-02-14T04:05:04.176Z,102040.63
2023-02-14T04:07:31.307Z,102035.03
2023-02-14T04:09:59.185Z,102044.13
2023-02-14T04:12:37.801Z,102038.91
2023-02-14T04:15:17.054Z,102048.25
2023-02-14T04:18:02.633Z,102043.53
2023-02-14T04:20:30.939Z,102051.47
2023-02-14T04:22:58.768Z,102046.66
2023-02-14T04:25:25.968Z,102044.91
2023-02-14T04:27:53.769Z,102036.75
2023-02-14T04:30:23.829Z,102032.50
2023-02-14T04:32:52.434Z,102031.00
2023-02-14T04:35:20.185Z,102034.81
2023-02-14T04:37:47.168Z,102047.28
2023-02-14T04:40:18.363Z,102040.03
2023-02-14T04:42:47.148Z,102039.81
2023-02-14T04:45:16.350Z,102044.69
2023-02-14T04:47:44.174Z,102047.44
2023-02-14T04:50:14.142Z,102043.59
2023-02-14T04:52:43.167Z,102039.09
2023-02-14T04:55:14.317Z,102036.56
2023-02-14T04:57:43.951Z,102037.97
2023-02-14T05:00:16.129Z,102038.09
2023-02-14T05:02:45.002Z,102046.38
2023-02-14T05:05:14.604Z,102042.81
2023-02-14T05:07:47.945Z,102042.78
2023-02-14T05:10:21.417Z,102050.84
2023-02-14T05:12:49.082Z,102053.78
2023-02-14T05:15:17.038Z,102043.41
2023-02-14T05:17:45.006Z,102034.69
2023-02-14T05:20:12.160Z,102055.66
2023-02-14T05:22:40.007Z,102046.22
2023-02-14T05:25:08.808Z,102050.28
2023-02-14T05:27:35.797Z,102051.16
2023-02-14T05:30:04.405Z,102052.38
2023-02-14T05:32:32.420Z,102055.94
2023-02-14T05:35:01.194Z,102050.34
2023-02-14T05:37:29.238Z,102055.91
2023-02-14T05:39:57.396Z,102058.25
2023-02-14T05:42:25.390Z,102060.00
2023-02-14T05:44:53.112Z,102054.25
2023-02-14T05:47:20.988Z,102054.28
2023-02-14T05:49:49.677Z,102055.28
2023-02-14T05:52:17.540Z,102053.28
2023-02-14T05:54:48.794Z,102059.72
2023-02-14T05:57:20.424Z,102058.66
2023-02-14T05:59:48.197Z,102054.28
2023-02-14T06:02:16.257Z,102064.41
2023-02-14T06:04:43.976Z,102061.53
2023-02-14T06:07:12.683Z,102064.31
2023-02-14T06:09:40.735Z,102074.50
2023-02-14T06:12:08.888Z,102060.41
2023-02-14T06:14:37.156Z,102075.88
2023-02-14T06:17:07.333Z,102079.25
2023-02-14T06:19:35.891Z,102077.47
2023-02-14T06:22:04.754Z,102073.94
2023-02-14T06:24:31.753Z,102076.59
2023-02-14T06:26:59.852Z,102080.94
2023-02-14T06:29:27.820Z,102084.53
2023-02-14T06:31:55.237Z,102088.50
2023-02-14T06:34:22.309Z,102086.00
2023-02-14T06:36:50.331Z,102081.41
2023-02-14T06:39:18.187Z,102076.81
2023-02-14T06:41:46.116Z,102083.34
2023-02-14T06:44:13.912Z,102085.88
2023-02-14T06:46:41.161Z,102082.19
2023-02-14T06:49:10.982Z,102082.28
2023-02-14T06:51:38.028Z,102080.91
2023-02-14T06:54:05.098Z,102084.91
2023-02-14T06:56:32.117Z,102087.00
2023-02-14T06:58:59.845Z,102085.81
2023-02-14T07:01:27.942Z,102089.38
2023-02-14T07:04:13.801Z,102081.03
2023-02-14T07:06:41.894Z,102083.41
2023-02-14T07:09:08.753Z,102083.22
2023-02-14T07:11:36.639Z,102085.59
2023-02-14T07:14:04.567Z,102087.56
2023-02-14T07:16:32.626Z,102082.69
2023-02-14T07:18:59.934Z,102083.81
2023-02-14T07:21:29.530Z,102083.81
2023-02-14T07:23:57.222Z,102079.91
2023-02-14T07:26:26.856Z,102084.38
2023-02-14T07:28:54.828Z,102084.63
2023-02-14T07:31:23.732Z,102086.97
2023-02-14T07:33:52.505Z,102081.09
2023-02-14T07:36:20.380Z,102075.31
2023-02-14T07:38:48.270Z,102081.78
2023-02-14T07:41:15.272Z,102086.31
2023-02-14T07:43:43.088Z,102084.06
2023-02-14T07:46:11.037Z,102087.38
2023-02-14T07:48:39.501Z,102077.69
2023-02-14T07:51:07.248Z,102082.13
2023-02-14T07:53:34.657Z,102080.22
2023-02-14T07:56:02.529Z,102078.25
2023-02-14T07:58:30.324Z,102085.47
2023-02-14T08:00:58.495Z,102094.09
2023-02-14T08:03:25.699Z,102087.06
2023-02-14T08:05:57.480Z,102083.78
2023-02-14T08:08:29.699Z,102082.16
2023-02-14T08:10:58.305Z,102096.31
2023-02-14T08:13:26.544Z,102093.16
2023-02-14T08:16:06.620Z,102086.81
2023-02-14T08:18:40.648Z,102096.97
2023-02-14T08:21:10.817Z,102106.78
2023-02-14T08:23:38.558Z,102107.66
2023-02-14T08:26:06.776Z,102102.13
2023-02-14T08:28:35.330Z,102107.00
2023-02-14T08:31:04.675Z,102100.84
2023-02-14T08:33:31.679Z,102104.00
2023-02-14T08:35:58.633Z,102102.63
2023-02-14T08:38:25.681Z,102118.91
2023-02-14T08:40:52.942Z,102110.06
2023-02-14T08:43:20.874Z,102107.94
2023-02-14T08:45:52.170Z,102114.78
2023-02-14T08:48:23.924Z,102104.69
2023-02-14T08:50:51.740Z,102108.88
2023-02-14T08:53:19.728Z,102109.00
2023-02-14T08:55:48.207Z,102105.78
2023-02-14T08:58:17.952Z,102111.16
2023-02-14T09:00:44.895Z,102103.44
2023-02-14T09:03:12.790Z,102108.16
2023-02-14T09:05:40.598Z,102110.84
2023-02-14T09:08:08.544Z,102108.84
2023-02-14T09:10:35.647Z,102105.34
2023-02-14T09:13:03.954Z,102105.50
2023-02-14T09:15:32.000Z,102111.34
2023-02-14T09:18:00.193Z,102111.59
2023-02-14T09:20:27.147Z,102113.38
2023-02-14T09:22:57.472Z,102101.06
2023-02-14T09:25:24.913Z,102104.19
2023-02-14T09:27:52.942Z,102101.97
2023-02-14T09:30:20.201Z,102114.34
2023-02-14T09:32:48.066Z,102113.84
2023-02-14T09:35:15.141Z,102108.63
2023-02-14T09:37:43.515Z,102107.41
2023-02-14T09:40:15.657Z,102109.41
2023-02-14T09:42:56.908Z,102111.78
2023-02-14T09:45:29.308Z,102108.63
2023-02-14T09:48:03.505Z,102107.19
2023-02-14T09:50:40.430Z,102110.19
2023-02-14T09:53:23.759Z,102108.84
2023-02-14T09:56:35.229Z,102113.25
2023-02-14T09:59:24.368Z,102107.66
2023-02-14T10:01:59.995Z,102109.91
2023-02-14T10:04:42.652Z,102111.00
2023-02-14T10:07:32.788Z,102114.88
2023-02-14T10:10:29.148Z,102109.25
2023-02-14T10:12:59.888Z,102109.88
2023-02-14T10:15:32.330Z,102106.03
2023-02-14T10:18:08.295Z,102106.78
2023-02-14T10:20:49.386Z,102102.25
2023-02-14T10:23:36.339Z,102101.31
2023-02-14T10:26:20.035Z,102094.66
2023-02-14T10:28:50.029Z,102100.75
2023-02-14T10:31:51.865Z,102102.00
2023-02-14T10:34:55.979Z,102099.47
2023-02-14T10:37:32.691Z,102094.94
2023-02-14T10:40:17.319Z,102084.75
2023-02-14T10:43:23.455Z,102091.38
2023-02-14T10:46:08.396Z,102098.19
2023-02-14T10:49:04.231Z,102094.22
2023-02-14T10:52:02.353Z,102094.69
2023-02-14T10:54:39.194Z,102086.63
2023-02-14T10:57:17.352Z,102078.59
2023-02-14T11:00:01.874Z,102079.84
2023-02-14T11:02:44.247Z,102070.94
2023-02-14T11:05:26.147Z,102077.94
2023-02-14T11:07:56.540Z,102070.53
2023-02-14T11:10:34.227Z,102070.06
2023-02-14T11:13:24.924Z,102067.50
2023-02-14T11:15:54.218Z,102067.34
2023-02-14T11:18:36.514Z,102063.56
2023-02-14T11:21:14.477Z,102060.13
2023-02-14T11:23:49.057Z,102055.56
2023-02-14T11:26:23.439Z,102071.16
2023-02-14T11:28:56.842Z,102071.06
2023-02-14T11:31:38.068Z,102064.06
2023-02-14T11:34:23.282Z,102060.34
2023-02-14T11:36:52.224Z,102058.94
2023-02-14T11:39:35.245Z,102062.78
2023-02-14T11:42:05.809Z,102071.22
2023-02-14T11:44:36.870Z,102069.38
2023-02-14T11:47:27.566Z,102066.16
2023-02-14T11:50:20.654Z,102057.22
2023-02-14T11:52:53.148Z,102052.88
2023-02-14T11:55:33.915Z,102051.38
2023-02-14T11:58:06.193Z,102052.00
2023-02-14T12:00:35.343Z,102055.06
2023-02-14T12:03:06.588Z,102050.81
2023-02-14T12:05:45.143Z,102044.91
2023-02-14T12:08:13.472Z,102055.44
2023-02-14T12:10:42.507Z,102049.56
2023-02-14T12:13:10.430Z,102039.16
2023-02-14T12:15:55.688Z,102045.63
2023-02-14T12:18:57.696Z,102038.50
2023-02-14T12:21:40.385Z,102033.88
2023-02-14T12:24:24.512Z,102037.28
2023-02-14T12:27:27.942Z,102042.06
2023-02-14T12:30:22.653Z,102041.31
2023-02-14T12:32:58.662Z,102041.63
2023-02-14T12:36:09.372Z,102033.19
2023-02-14T12:38:42.477Z,102036.97
2023-02-14T12:41:36.059Z,102030.72
2023-02-14T12:44:38.442Z,102029.09
2023-02-14T12:47:29.972Z,102008.22
2023-02-14T12:50:22.307Z,102019.34
2023-02-14T12:52:50.949Z,102016.06
2023-02-14T12:55:33.398Z,102020.94
2023-02-14T12:58:13.726Z,102015.06
2023-02-14T13:01:12.206Z,102014.56
2023-02-14T13:03:53.581Z,102024.25
2023-02-14T13:06:31.095Z,102020.88
2023-02-14T13:09:09.194Z,102012.44
2023-02-14T13:11:43.717Z,102019.13
2023-02-14T13:14:14.450Z,102014.50
2023-02-14T13:17:08.111Z,102014.44
2023-02-14T13:20:14.226Z,102009.25
2023-02-14T13:22:44.284Z,102009.91
2023-02-14T13:25:33.804Z,102008.34
2023-02-14T13:28:07.589Z,102004.91
2023-02-14T13:30:41.416Z,102011.25
2023-02-14T13:33:41.490Z,102007.41
2023-02-14T13:36:13.150Z,102013.69
2023-02-14T13:38:49.034Z,102009.94
2023-02-14T13:41:20.131Z,102007.78
2023-02-14T13:44:03.187Z,102007.13
2023-02-14T13:46:34.669Z,102008.56
2023-02-14T13:49:14.792Z,102009.81
2023-02-14T13:51:51.924Z,102004.97
2023-02-14T13:54:32.827Z,102004.44
2023-02-14T13:57:04.043Z,102013.16
2023-02-14T13:59:34.737Z,101993.34
2023-02-14T14:02:30.231Z,102008.88
2023-02-14T14:04:58.267Z,101997.34
2023-02-14T14:07:30.529Z,102004.59
2023-02-14T14:10:02.252Z,101989.63
2023-02-14T14:12:33.874Z,101991.25
2023-02-14T14:15:14.526Z,101992.97
2023-02-14T14:17:46.510Z,101999.41
2023-02-14T14:20:21.234Z,101998.78
2023-02-14T14:22:54.783Z,101995.69
2023-02-14T14:25:52.283Z,102008.53
2023-02-14T14:28:23.297Z,102010.63
2023-02-14T14:30:52.073Z,102002.44
2023-02-14T14:33:34.037Z,102010.50
2023-02-14T14:36:09.083Z,102007.41
2023-02-14T14:38:49.501Z,101996.66
2023-02-14T14:41:18.309Z,102003.47
2023-02-14T14:43:47.563Z,102011.28
2023-02-14T14:46:17.537Z,101999.31
2023-02-14T14:48:51.546Z,101992.75
2023-02-14T14:51:32.103Z,101992.88
2023-02-14T14:54:03.561Z,102001.91
2023-02-14T14:57:03.735Z,101997.91
2023-02-14T14:59:35.894Z,102003.34
2023-02-14T15:02:20.500Z,102005.84
2023-02-14T15:04:49.491Z,102002.31
2023-02-14T15:07:33.754Z,102007.16
2023-02-14T15:10:03.385Z,102006.97
2023-02-14T15:12:49.958Z,102015.84
2023-02-14T15:15:19.461Z,102009.06
2023-02-14T15:17:47.633Z,102018.06
2023-02-14T15:20:21.750Z,102008.94
2023-02-14T15:22:54.249Z,102010.72
2023-02-14T15:25:23.767Z,102003.69
2023-02-14T15:27:52.107Z,102009.88
2023-02-14T15:30:23.495Z,102008.34
2023-02-14T15:32:52.514Z,102004.88
2023-02-14T15:35:34.295Z,102020.81
2023-02-14T15:38:07.112Z,102011.59
2023-02-14T15:40:36.251Z,102022.97
2023-02-14T15:43:15.823Z,102005.47
2023-02-14T15:45:47.305Z,102009.25
2023-02-14T15:48:36.739Z,102018.75
2023-02-14T15:51:06.998Z,102015.03
2023-02-14T15:53:39.416Z,102020.56
2023-02-14T15:56:15.686Z,102016.88
2023-02-14T15:58:45.685Z,102018.31
2023-02-14T16:01:14.688Z,102029.31
2023-02-14T16:03:52.465Z,102030.25
2023-02-14T16:06:36.752Z,102035.44
2023-02-14T16:09:22.843Z,102039.84
2023-02-14T16:11:55.414Z,102042.34
2023-02-14T16:14:32.549Z,102043.00
2023-02-14T16:17:14.294Z,102045.31
2023-02-14T16:19:45.429Z,102035.44
2023-02-14T16:22:38.544Z,102047.91
2023-02-14T16:25:07.588Z,102056.50
2023-02-14T16:27:36.463Z,102052.28
2023-02-14T16:30:06.761Z,102058.50
2023-02-14T16:32:37.324Z,102059.00
2023-02-14T16:35:07.167Z,102051.28
2023-02-14T16:37:36.326Z,102050.41
2023-02-14T16:40:14.423Z,102062.28
2023-02-14T16:42:44.316Z,102057.94
2023-02-14T16:45:18.274Z,102056.28
2023-02-14T16:47:49.107Z,102063.31
2023-02-14T16:50:20.821Z,102069.84
2023-02-14T16:52:52.008Z,102061.25
2023-02-14T16:55:22.486Z,102068.06
2023-02-14T16:57:53.414Z,102065.84
2023-02-14T17:00:23.198Z,102073.97
2023-02-14T17:02:52.068Z,102084.03
2023-02-14T17:05:20.934Z,102080.84
2023-02-14T17:07:49.813Z,102072.44
2023-02-14T17:10:20.689Z,102077.50
2023-02-14T17:12:51.185Z,102079.19
2023-02-14T17:15:23.051Z,102078.38
2023-02-14T17:17:57.180Z,102080.16
2023-02-14T17:20:26.933Z,102082.06
2023-02-14T17:22:56.827Z,102080.34
2023-02-14T17:25:26.784Z,102080.28
2023-02-14T17:27:57.078Z,102075.47
2023-02-14T17:30:26.076Z,102079.31
2023-02-14T17:32:55.127Z,102088.78
2023-02-14T17:35:24.113Z,102079.16
2023-02-14T17:37:51.976Z,102069.78
2023-02-14T17:40:21.178Z,102084.69
2023-02-14T17:42:50.988Z,102079.44
2023-02-14T17:45:19.937Z,102089.78
2023-02-14T17:47:48.943Z,102078.16
2023-02-14T17:50:18.781Z,102089.44
2023-02-14T17:52:47.538Z,102091.09
2023-02-14T17:55:16.333Z,102089.38
2023-02-14T17:57:45.454Z,102091.84
2023-02-14T18:00:16.588Z,102095.88
2023-02-14T18:02:45.628Z,102092.78
2023-02-14T18:05:14.341Z,102101.25
2023-02-14T18:07:43.559Z,102097.88
2023-02-14T18:10:12.757Z,102095.09
2023-02-14T18:12:39.838Z,102088.13
2023-02-14T18:15:09.145Z,102094.28
2023-02-14T18:17:38.171Z,102089.66
2023-02-14T18:20:07.552Z,102091.97
2023-02-14T18:22:37.223Z,102093.94
2023-02-14T18:25:06.303Z,102095.47
2023-02-14T18:27:35.248Z,102092.41
2023-02-14T18:30:04.519Z,102094.66
2023-02-14T18:32:33.301Z,102099.53
2023-02-14T18:35:02.134Z,102094.38
2023-02-14T18:37:30.788Z,102109.47
2023-02-14T18:39:59.634Z,102101.97
2023-02-14T18:42:28.298Z,102106.16
2023-02-14T18:44:57.328Z,102102.97
2023-02-14T18:47:25.992Z,102107.25
2023-02-14T18:49:55.216Z,102104.31
2023-02-14T18:52:24.345Z,102104.97
2023-02-14T18:54:53.620Z,102110.53
2023-02-14T18:57:21.492Z,102112.84
2023-02-14T18:59:50.399Z,102108.03
2023-02-14T19:02:19.866Z,102109.28
2023-02-14T19:04:48.702Z,102105.56
2023-02-14T19:07:17.648Z,102091.63
2023-02-14T19:09:46.346Z,102096.94
2023-02-14T19:12:15.163Z,102105.06
2023-02-14T19:14:44.462Z,102104.88
2023-02-14T19:17:13.262Z,102106.94
2023-02-14T19:19:42.404Z,102101.75
2023-02-14T19:22:11.471Z,102101.72
2023-02-14T19:24:40.347Z,102107.94
2023-02-14T19:27:09.394Z,102098.00
2023-02-14T19:29:38.542Z,102100.44
2023-02-14T19:32:07.373Z,102098.53
2023-02-14T19:34:39.339Z,102105.03
2023-02-14T19:37:08.065Z,102107.81
2023-02-14T19:39:36.910Z,102110.44
2023-02-14T19:42:05.734Z,102101.13
2023-02-14T19:44:34.393Z,102113.88
2023-02-14T19:47:19.254Z,102108.50
2023-02-14T19:49:53.780Z,102111.75
2023-02-14T19:52:26.938Z,102109.50
2023-02-14T19:54:56.355Z,102100.16
2023-02-14T19:57:25.842Z,102112.34
2023-02-14T19:59:55.636Z,102107.97
2023-02-14T20:02:24.832Z,102105.59
2023-02-14T20:04:59.263Z,102092.47
2023-02-14T20:07:28.261Z,102098.72
2023-02-14T20:09:57.018Z,102098.78
2023-02-14T20:12:26.132Z,102102.53
2023-02-14T20:14:56.643Z,102100.22
2023-02-14T20:17:25.729Z,102101.25
2023-02-14T20:19:56.207Z,102104.63
2023-02-14T20:22:25.989Z,102100.97
2023-02-14T20:24:54.817Z,102102.84
2023-02-14T20:27:25.765Z,102098.69
2023-02-14T20:29:55.486Z,102104.47
2023-02-14T20:32:24.301Z,102105.16
2023-02-14T20:34:53.269Z,102103.88
2023-02-14T20:37:22.214Z,102107.84
2023-02-14T20:39:51.827Z,102109.19
2023-02-14T20:42:20.803Z,102111.25
2023-02-14T20:44:50.042Z,102104.16
2023-02-14T20:47:20.217Z,102110.44
2023-02-14T20:49:50.323Z,102099.91
2023-02-14T20:52:19.514Z,102106.19
2023-02-14T20:54:49.187Z,102111.66
2023-02-14T20:57:18.147Z,102112.28
2023-02-14T20:59:47.138Z,102112.13
2023-02-14T21:02:17.551Z,102112.56
2023-02-14T21:04:45.883Z,102116.16
2023-02-14T21:07:15.721Z,102115.09
2023-02-14T21:09:45.658Z,102105.56
2023-02-14T21:12:15.122Z,102113.59
2023-02-14T21:14:44.106Z,102114.78
2023-02-14T21:17:12.979Z,102109.16
2023-02-14T21:19:41.746Z,102109.75
2023-02-14T21:22:10.826Z,102107.00
2023-02-14T21:24:40.744Z,102107.56
2023-02-14T21:27:09.455Z,102111.50
2023-02-14T21:29:38.218Z,102107.34
2023-02-14T21:32:07.557Z,102108.84
2023-02-14T21:34:36.662Z,102104.31
2023-02-14T21:37:05.724Z,102108.00
2023-02-14T21:39:37.971Z,102118.03
2023-02-14T21:42:07.796Z,102113.88
2023-02-14T21:44:55.150Z,102114.81
2023-02-14T21:47:23.990Z,102117.53
2023-02-14T21:50:11.504Z,102111.25
2023-02-14T21:52:40.506Z,102114.56
2023-02-14T21:55:09.298Z,102110.22
2023-02-14T21:57:38.164Z,102112.22
2023-02-14T22:00:07.786Z,102108.19
2023-02-14T22:02:39.691Z,102112.06
2023-02-14T22:05:09.086Z,102109.53
2023-02-14T22:07:38.408Z,102097.94
2023-02-14T22:10:06.609Z,102098.72
2023-02-14T22:12:35.325Z,102107.13
2023-02-14T22:15:04.420Z,102096.75
2023-02-14T22:17:33.276Z,102109.84
2023-02-14T22:20:01.641Z,102098.44
2023-02-14T22:22:29.685Z,102111.25
2023-02-14T22:24:57.578Z,102107.16
2023-02-14T22:27:25.660Z,102112.13
2023-02-14T22:29:52.651Z,102108.25
2023-02-14T22:32:21.098Z,102122.50
2023-02-14T22:34:49.017Z,102121.81
2023-02-14T22:37:15.982Z,102116.22
2023-02-14T22:39:43.378Z,102108.13
2023-02-14T22:42:12.311Z,102112.16
2023-02-14T22:44:40.388Z,102117.34
2023-02-14T22:47:09.009Z,102119.50
2023-02-14T22:49:36.842Z,102119.72
2023-02-14T22:52:05.908Z,102115.59
2023-02-14T22:54:33.341Z,102120.41
2023-02-14T22:57:01.300Z,102112.66
2023-02-14T22:59:32.286Z,102116.25
2023-02-14T23:02:01.716Z,102116.72
2023-02-14T23:04:30.609Z,102116.72
2023-02-14T23:06:58.533Z,102115.22
2023-02-14T23:09:28.421Z,102121.97
2023-02-14T23:11:57.405Z,102115.69
2023-02-14T23:14:44.653Z,102116.16
2023-02-14T23:17:18.945Z,102106.09
2023-02-14T23:20:07.038Z,102112.00
2023-02-14T23:22:40.816Z,102117.38
2023-02-14T23:25:11.566Z,102114.25
2023-02-14T23:27:41.677Z,102116.47
2023-02-14T23:30:13.692Z,102115.16
2023-02-14T23:32:41.963Z,102123.88
2023-02-14T23:35:09.491Z,102110.13
2023-02-14T23:37:37.789Z,102109.22
2023-02-14T23:40:06.954Z,102118.38
2023-02-14T23:42:37.293Z,102113.38
2023-02-14T23:45:23.353Z,102110.00
2023-02-14T23:47:50.488Z,102117.69
2023-02-14T23:50:18.360Z,102113.50
2023-02-14T23:52:46.233Z,102110.47
2023-02-14T23:55:13.539Z,102114.47
2023-02-14T23:57:40.571Z,102112.13
